^^
Your Local Weather - Clay, NY Station Historical Data
Daily Summary for November 25, 2017 Units:  English    Metric   Both
« Previous Day
Next Day »
Daily Weekly Monthly Yearly Custom
  High: Low: Average:
Temperature: 51.6 °F 37.4 °F 44.7 °F
Dew Point: 42.6 °F 23.9 °F 33.4 °F
Humidity: 90% 42% 66%
Wind Speed: 5.0mph 0.0mph 2mph
Wind Gust: 10.0mph - -
Wind- - SW
Pressure: 29.76 in 29.56 in -
Precipitation: 0.01 in    
Historical Graphs
 
 
Tabular Data for November 25, 2017
Time Temperature Dew Point Pressure Wind Wind Speed Wind Gust Humidity Rainfall Rate (Hourly) solar
00:04 42.8 °F 23.9 °F 29.67 in SE 1.0 mph 2.0 mph 47% 0.00 in 0 W/m2
00:10 42.0 °F 24.2 °F 29.67 in SE 1.0 mph 1.0 mph 49% 0.00 in 0 W/m2
00:15 41.5 °F 24.2 °F 29.67 in Calm   1.0 mph 50% 0.00 in 0 W/m2
00:22 40.9 °F 24.6 °F 29.67 in Calm     52% 0.00 in 0 W/m2
00:28 39.6 °F 24.7 °F 29.66 in Calm     55% 0.00 in 0 W/m2
00:34 38.8 °F 25.3 °F 29.66 in Calm   1.0 mph 58% 0.00 in 0 W/m2
00:40 38.1 °F 25.4 °F 29.66 in Calm     60% 0.00 in 0 W/m2
00:46 38.0 °F 25.3 °F 29.65 in Calm     60% 0.00 in 0 W/m2
00:52 38.3 °F 25.2 °F 29.65 in SE 1.0 mph 1.0 mph 59% 0.00 in 0 W/m2
00:58 38.1 °F 25.0 °F 29.65 in SE 1.0 mph 1.0 mph 59% 0.00 in 0 W/m2
01:04 37.4 °F 25.6 °F 29.64 in SE 1.0 mph 1.0 mph 62% 0.00 in 0 W/m2
01:10 37.7 °F 25.5 °F 29.64 in East 1.0 mph 1.0 mph 61% 0.00 in 0 W/m2
01:15 38.1 °F 25.4 °F 29.64 in East 1.0 mph 1.0 mph 60% 0.00 in 0 W/m2
01:22 38.8 °F 25.7 °F 29.64 in ESE 1.0 mph 2.0 mph 59% 0.00 in 0 W/m2
01:28 39.3 °F 25.3 °F 29.64 in SE 1.0 mph 3.0 mph 57% 0.00 in 0 W/m2
01:34 40.5 °F 25.6 °F 29.64 in SE 1.0 mph 1.0 mph 55% 0.00 in 0 W/m2
01:40 40.6 °F 25.7 °F 29.64 in SE 1.0 mph 1.0 mph 55% 0.00 in 0 W/m2
01:45 39.9 °F 25.0 °F 29.64 in Calm   1.0 mph 55% 0.00 in 0 W/m2
01:52 39.0 °F 25.9 °F 29.63 in SE 1.0 mph 1.0 mph 59% 0.00 in 0 W/m2
01:58 38.7 °F 26.0 °F 29.63 in SE 1.0 mph 1.0 mph 60% 0.00 in 0 W/m2
02:04 38.2 °F 25.9 °F 29.63 in SE 1.0 mph 1.0 mph 61% 0.00 in 0 W/m2
02:10 38.5 °F 25.8 °F 29.63 in SE 1.0 mph 1.0 mph 60% 0.00 in 0 W/m2
02:16 39.3 °F 26.2 °F 29.63 in ESE 1.0 mph 2.0 mph 59% 0.00 in 0 W/m2
02:22 40.4 °F 26.4 °F 29.63 in ESE 1.0 mph 2.0 mph 57% 0.00 in 0 W/m2
02:28 40.4 °F 25.9 °F 29.63 in ESE 1.0 mph 2.0 mph 56% 0.00 in 0 W/m2
02:34 39.8 °F 25.8 °F 29.62 in Calm   2.0 mph 57% 0.00 in 0 W/m2
02:40 39.5 °F 25.9 °F 29.62 in SE 1.0 mph 4.0 mph 58% 0.00 in 0 W/m2
02:45 41.2 °F 25.8 °F 29.61 in SSE 2.0 mph 4.0 mph 54% 0.00 in 0 W/m2
02:52 42.0 °F 26.1 °F 29.62 in SSE 1.0 mph 2.0 mph 53% 0.00 in 0 W/m2
02:58 41.1 °F 26.6 °F 29.62 in SSE 1.0 mph 2.0 mph 56% 0.00 in 0 W/m2
03:04 39.6 °F 26.0 °F 29.62 in SSE 1.0 mph 1.0 mph 58% 0.00 in 0 W/m2
03:10 39.1 °F 26.4 °F 29.61 in SSE 1.0 mph 1.0 mph 60% 0.00 in 0 W/m2
03:16 38.2 °F 26.3 °F 29.61 in SSE 1.0 mph 2.0 mph 62% 0.00 in 0 W/m2
03:22 37.7 °F 25.8 °F 29.61 in Calm     62% 0.00 in 0 W/m2
03:28 37.4 °F 25.6 °F 29.60 in Calm   2.0 mph 62% 0.00 in 0 W/m2
03:34 37.5 °F 26.0 °F 29.59 in Calm     63% 0.00 in 0 W/m2
03:40 37.4 °F 25.9 °F 29.59 in Calm     63% 0.00 in 0 W/m2
03:46 38.4 °F 26.1 °F 29.59 in East 1.0 mph 6.0 mph 61% 0.00 in 0 W/m2
03:52 38.7 °F 26.4 °F 29.59 in East 1.0 mph 1.0 mph 61% 0.00 in 0 W/m2
03:58 38.0 °F 26.1 °F 29.59 in Calm   1.0 mph 62% 0.00 in 0 W/m2
04:03 37.5 °F 26.0 °F 29.58 in Calm     63% 0.00 in 0 W/m2
04:10 37.8 °F 26.3 °F 29.58 in Calm     63% 0.00 in 0 W/m2
04:16 38.1 °F 26.2 °F 29.58 in Calm     62% 0.00 in 0 W/m2
04:22 38.2 °F 26.3 °F 29.58 in Calm   1.0 mph 62% 0.00 in 0 W/m2
04:28 38.7 °F 26.8 °F 29.58 in Calm   1.0 mph 62% 0.00 in 0 W/m2
04:34 40.1 °F 27.3 °F 29.58 in SW 1.0 mph 2.0 mph 60% 0.00 in 0 W/m2
04:40 41.1 °F 27.4 °F 29.58 in SW 1.0 mph 1.0 mph 58% 0.00 in 0 W/m2
04:46 40.6 °F 27.4 °F 29.58 in Calm   1.0 mph 59% 0.00 in 0 W/m2
04:52 39.7 °F 27.3 °F 29.58 in Calm   2.0 mph 61% 0.00 in 0 W/m2
04:58 38.8 °F 27.3 °F 29.58 in SW 1.0 mph 2.0 mph 63% 0.00 in 0 W/m2
05:04 38.7 °F 26.8 °F 29.58 in Calm   1.0 mph 62% 0.00 in 0 W/m2
05:10 38.8 °F 27.3 °F 29.58 in Calm   2.0 mph 63% 0.00 in 0 W/m2
05:16 38.6 °F 27.1 °F 29.58 in SW 1.0 mph 2.0 mph 63% 0.00 in 0 W/m2
05:22 38.0 °F 27.3 °F 29.57 in Calm   1.0 mph 65% 0.00 in 0 W/m2
05:28 38.5 °F 27.4 °F 29.57 in SE 1.0 mph 3.0 mph 64% 0.00 in 0 W/m2
05:34 40.5 °F 27.7 °F 29.56 in ESE 1.0 mph 3.0 mph 60% 0.00 in 0 W/m2
05:39 42.4 °F 27.8 °F 29.56 in South 2.0 mph 2.0 mph 56% 0.00 in 0 W/m2
05:46 43.3 °F 27.8 °F 29.56 in South 1.0 mph 3.0 mph 54% 0.00 in 0 W/m2
05:52 46.0 °F 27.9 °F 29.56 in South 2.0 mph 2.0 mph 49% 0.00 in 0 W/m2
05:58 46.9 °F 27.7 °F 29.56 in SSW 3.0 mph 4.0 mph 47% 0.00 in 0 W/m2
06:04 47.8 °F 27.5 °F 29.56 in SSE 3.0 mph 4.0 mph 45% 0.00 in 0 W/m2
06:10 48.1 °F 27.2 °F 29.56 in South 2.0 mph 5.0 mph 44% 0.00 in 0 W/m2
06:15 48.2 °F 27.3 °F 29.56 in SSE 2.0 mph 6.0 mph 44% 0.00 in 0 W/m2
06:22 48.8 °F 26.7 °F 29.56 in South 4.0 mph 4.0 mph 42% 0.00 in 0 W/m2
06:28 48.6 °F 27.1 °F 29.56 in SW 3.0 mph 4.0 mph 43% 0.00 in 0 W/m2
06:34 48.6 °F 27.1 °F 29.56 in South 3.0 mph 4.0 mph 43% 0.00 in 0 W/m2
06:40 48.7 °F 27.2 °F 29.56 in SSW 3.0 mph 3.0 mph 43% 0.00 in 0 W/m2
06:46 48.7 °F 27.2 °F 29.56 in SSW 3.0 mph 4.0 mph 43% 0.00 in 0 W/m2
06:52 48.9 °F 27.4 °F 29.56 in SSW 4.0 mph 5.0 mph 43% 0.00 in 0 W/m2
06:58 48.8 °F 27.3 °F 29.56 in SSE 3.0 mph 5.0 mph 43% 0.00 in 0 W/m2
07:04 48.7 °F 27.2 °F 29.56 in SW 3.0 mph 3.0 mph 43% 0.00 in 0 W/m2
07:10 48.4 °F 26.9 °F 29.56 in SSW 3.0 mph 3.0 mph 43% 0.00 in 9 W/m2
07:16 48.4 °F 27.5 °F 29.56 in SW 3.0 mph 3.0 mph 44% 0.00 in 11 W/m2
07:22 48.5 °F 27.6 °F 29.56 in SW 3.0 mph 4.0 mph 44% 0.00 in 25 W/m2
07:28 48.7 °F 27.7 °F 29.56 in SSW 3.0 mph 4.0 mph 44% 0.00 in 37 W/m2
07:34 48.8 °F 27.8 °F 29.56 in South 3.0 mph 6.0 mph 44% 0.00 in 40 W/m2
07:39 49.1 °F 28.1 °F 29.56 in SSE 4.0 mph 4.0 mph 44% 0.00 in 51 W/m2
07:46 49.2 °F 27.6 °F 29.56 in South 3.0 mph 6.0 mph 43% 0.00 in 42 W/m2
07:52 49.2 °F 28.2 °F 29.56 in South 3.0 mph 4.0 mph 44% 0.00 in 40 W/m2
07:58 49.3 °F 27.7 °F 29.56 in SSW 3.0 mph 4.0 mph 43% 0.00 in 42 W/m2
08:03 49.4 °F 27.8 °F 29.56 in SSE 4.0 mph 6.0 mph 43% 0.00 in 53 W/m2
08:09 49.4 °F 28.4 °F 29.56 in SSW 5.0 mph 5.0 mph 44% 0.00 in 114 W/m2
08:16 49.4 °F 27.8 °F 29.56 in South 5.0 mph 5.0 mph 43% 0.00 in 77 W/m2
08:22 49.4 °F 28.4 °F 29.56 in South 5.0 mph 7.0 mph 44% 0.00 in 74 W/m2
08:28 49.4 °F 28.4 °F 29.56 in SSW 5.0 mph 7.0 mph 44% 0.00 in 81 W/m2
08:34 49.6 °F 28.6 °F 29.56 in South 5.0 mph 5.0 mph 44% 0.00 in 123 W/m2
08:39 49.5 °F 28.5 °F 29.56 in SSW 4.0 mph 5.0 mph 44% 0.00 in 60 W/m2
08:46 49.3 °F 28.8 °F 29.56 in SSW 4.0 mph 5.0 mph 45% 0.00 in 44 W/m2
08:52 49.1 °F 29.2 °F 29.56 in SSE 4.0 mph 5.0 mph 46% 0.00 in 44 W/m2
08:58 49.1 °F 28.7 °F 29.56 in WSW 3.0 mph 5.0 mph 45% 0.00 in 42 W/m2
09:04 49.2 °F 28.7 °F 29.56 in South 3.0 mph 5.0 mph 45% 0.00 in 44 W/m2
09:10 49.2 °F 28.7 °F 29.56 in South 3.0 mph 3.0 mph 45% 0.00 in 39 W/m2
09:16 49.2 °F 29.3 °F 29.56 in South 2.0 mph 3.0 mph 46% 0.00 in 39 W/m2
09:22 49.3 °F 29.4 °F 29.56 in SSW 2.0 mph 3.0 mph 46% 0.00 in 28 W/m2
09:28 49.5 °F 29.6 °F 29.56 in South 3.0 mph 5.0 mph 46% 0.00 in 23 W/m2
09:34 49.6 °F 29.6 °F 29.56 in South 3.0 mph 4.0 mph 46% 0.00 in 16 W/m2
09:40 49.8 °F 29.8 °F 29.56 in SSW 2.0 mph 2.0 mph 46% 0.00 in 19 W/m2
09:46 50.0 °F 29.5 °F 29.57 in South 2.0 mph 4.0 mph 45% 0.00 in 37 W/m2
09:52 50.2 °F 29.7 °F 29.57 in South 3.0 mph 3.0 mph 45% 0.00 in 54 W/m2
09:58 50.3 °F 30.3 °F 29.57 in SW 3.0 mph 6.0 mph 46% 0.00 in 37 W/m2
10:04 50.2 °F 29.7 °F 29.58 in SSE 3.0 mph 4.0 mph 45% 0.00 in 16 W/m2
10:10 50.0 °F 31.1 °F 29.58 in SSW 3.0 mph 4.0 mph 48% 0.00 in 11 W/m2
10:15 49.4 °F 33.0 °F 29.58 in SSE 2.0 mph 4.0 mph 53% 0.00 in 9 W/m2
10:22 48.4 °F 33.4 °F 29.59 in SW 3.0 mph 7.0 mph 56% 0.00 in 14 W/m2
10:28 47.7 °F 34.5 °F 29.59 in SW 4.0 mph 10.0 mph 60% 0.00 in 18 W/m2
10:34 47.0 °F 34.6 °F 29.59 in SW 3.0 mph 5.0 mph 62% 0.00 in 25 W/m2
10:40 46.7 °F 34.8 °F 29.59 in SW 2.0 mph 2.0 mph 63% 0.00 in 35 W/m2
10:46 46.6 °F 35.5 °F 29.59 in SW 1.0 mph 2.0 mph 65% 0.00 in 72 W/m2
10:52 46.6 °F 35.8 °F 29.58 in SW 1.0 mph 1.0 mph 66% 0.00 in 53 W/m2
10:58 46.7 °F 35.6 °F 29.59 in SW 1.0 mph 3.0 mph 65% 0.00 in 65 W/m2
11:04 46.8 °F 35.6 °F 29.58 in SW 1.0 mph 1.0 mph 65% 0.00 in 93 W/m2
11:10 47.1 °F 35.9 °F 29.58 in SW 1.0 mph 2.0 mph 65% 0.00 in 116 W/m2
11:16 47.7 °F 36.1 °F 29.58 in SW 2.0 mph 3.0 mph 64% 0.00 in 178 W/m2
11:22 48.3 °F 35.9 °F 29.58 in SW 2.0 mph 2.0 mph 62% 0.00 in 162 W/m2
11:28 48.5 °F 35.7 °F 29.58 in SW 2.0 mph 6.0 mph 61% 0.00 in 97 W/m2
11:34 48.7 °F 35.8 °F 29.57 in SW 2.0 mph 3.0 mph 61% 0.00 in 62 W/m2
11:40 48.6 °F 35.3 °F 29.57 in SW 2.0 mph 2.0 mph 60% 0.00 in 63 W/m2
11:46 48.6 °F 35.7 °F 29.57 in SW 1.0 mph 2.0 mph 61% 0.00 in 134 W/m2
11:58 49.3 °F 36.4 °F 29.57 in South 1.0 mph 3.0 mph 61% 0.00 in 179 W/m2
12:04 49.6 °F 35.8 °F 29.57 in South 2.0 mph 3.0 mph 59% 0.00 in 118 W/m2
12:09 49.8 °F 36.0 °F 29.57 in SSW 2.0 mph 2.0 mph 59% 0.00 in 76 W/m2
12:18 49.8 °F 36.0 °F 29.57 in South 2.0 mph 4.0 mph 59% 0.00 in 76 W/m2
12:24 49.8 °F 35.6 °F 29.57 in South 2.0 mph 2.0 mph 58% 0.00 in 84 W/m2
12:30 49.9 °F 36.1 °F 29.57 in South 1.0 mph 2.0 mph 59% 0.00 in 69 W/m2
12:36 50.0 °F 36.2 °F 29.57 in South 1.0 mph 2.0 mph 59% 0.00 in 91 W/m2
12:42 50.2 °F 35.5 °F 29.57 in South 1.0 mph 1.0 mph 57% 0.00 in 86 W/m2
12:48 50.5 °F 35.4 °F 29.58 in South 1.0 mph 1.0 mph 56% 0.00 in 46 W/m2
12:54 50.7 °F 35.6 °F 29.58 in South 1.0 mph 2.0 mph 56% 0.00 in 54 W/m2
12:59 50.8 °F 35.7 °F 29.58 in WSW 1.0 mph 3.0 mph 56% 0.00 in 62 W/m2
13:05 51.0 °F 35.4 °F 29.57 in WSW 2.0 mph 5.0 mph 55% 0.00 in 69 W/m2
13:12 51.1 °F 35.0 °F 29.57 in WSW 1.0 mph 4.0 mph 54% 0.00 in 84 W/m2
13:20 51.4 °F 35.8 °F 29.57 in WSW 2.0 mph 2.0 mph 55% 0.00 in 86 W/m2
13:26 51.5 °F 35.9 °F 29.58 in WSW 2.0 mph 4.0 mph 55% 0.00 in 84 W/m2
13:32 51.5 °F 36.3 °F 29.58 in West 3.0 mph 3.0 mph 56% 0.00 in 88 W/m2
13:38 51.6 °F 36.9 °F 29.58 in West 2.0 mph 6.0 mph 57% 0.00 in 76 W/m2
13:44 51.5 °F 36.8 °F 29.58 in West 3.0 mph 7.0 mph 57% 0.00 in 65 W/m2
13:50 51.4 °F 37.1 °F 29.58 in WSW 4.0 mph 4.0 mph 58% 0.00 in 60 W/m2
13:56 51.3 °F 37.9 °F 29.58 in West 2.0 mph 4.0 mph 60% 0.00 in 76 W/m2
14:08 50.9 °F 39.1 °F 29.59 in WNW 4.0 mph 4.0 mph 64% 0.00 in 49 W/m2
14:13 50.8 °F 39.5 °F 29.59 in WNW 3.0 mph 4.0 mph 65% 0.00 in 46 W/m2
14:20 50.6 °F 39.7 °F 29.59 in WNW 4.0 mph 4.0 mph 66% 0.00 in 44 W/m2
14:26 50.3 °F 40.1 °F 29.59 in West 3.0 mph 5.0 mph 68% 0.00 in 30 W/m2
14:32 50.0 °F 40.6 °F 29.60 in WNW 4.0 mph 6.0 mph 70% 0.00 in 19 W/m2
14:38 49.3 °F 41.4 °F 29.60 in WNW 4.0 mph 6.0 mph 74% 0.00 in 21 W/m2
14:43 48.7 °F 41.8 °F 29.61 in WNW 3.0 mph 4.0 mph 77% 0.00 in 30 W/m2
14:50 48.1 °F 42.2 °F 29.61 in NW 3.0 mph 4.0 mph 80% 0.00 in 32 W/m2
14:56 47.3 °F 42.4 °F 29.61 in WNW 4.0 mph 5.0 mph 83% 0.00 in 51 W/m2
15:02 46.8 °F 42.5 °F 29.62 in WNW 4.0 mph 4.0 mph 85% 0.00 in 37 W/m2
15:08 46.5 °F 42.5 °F 29.62 in WNW 4.0 mph 7.0 mph 86% 0.00 in 37 W/m2
15:14 46.3 °F 42.6 °F 29.62 in West 3.0 mph 5.0 mph 87% 0.00 in 39 W/m2
15:20 46.0 °F 42.3 °F 29.63 in NNW 4.0 mph 8.0 mph 87% 0.00 in 46 W/m2
15:25 45.8 °F 42.4 °F 29.63 in WNW 4.0 mph 9.0 mph 88% 0.00 in 62 W/m2
15:28 45.7 °F 42.3 °F 29.63 in West 4.0 mph 9.0 mph 88% 0.00 in 67 W/m2
15:34 45.6 °F 42.3 °F 29.63 in WNW 4.0 mph 4.0 mph 88% 0.00 in 56 W/m2
15:40 45.5 °F 42.2 °F 29.64 in WNW 3.0 mph 3.0 mph 88% 0.00 in 42 W/m2
15:46 45.4 °F 42.1 °F 29.64 in WNW 3.0 mph 5.0 mph 88% 0.00 in 23 W/m2
15:52 45.3 °F 42.2 °F 29.64 in WNW 3.0 mph 4.0 mph 89% 0.00 in 26 W/m2
15:58 45.3 °F 42.2 °F 29.64 in WNW 2.0 mph 4.0 mph 89% 0.00 in 19 W/m2
16:04 45.2 °F 42.2 °F 29.64 in West 2.0 mph 3.0 mph 89% 0.00 in 16 W/m2
16:10 45.1 °F 42.1 °F 29.65 in West 2.0 mph 2.0 mph 89% 0.00 in 12 W/m2
16:16 45.0 °F 42.0 °F 29.65 in WNW 2.0 mph 3.0 mph 89% 0.00 in 7 W/m2
16:22 44.9 °F 41.9 °F 29.65 in WSW 2.0 mph 2.0 mph 89% 0.00 in 5 W/m2
16:28 44.9 °F 41.9 °F 29.65 in West 2.0 mph 3.0 mph 89% 0.00 in 0 W/m2
16:34 44.8 °F 41.8 °F 29.65 in West 1.0 mph 2.0 mph 89% 0.00 in 0 W/m2
16:40 44.7 °F 41.7 °F 29.65 in West 2.0 mph 2.0 mph 89% 0.00 in 0 W/m2
16:46 44.5 °F 41.5 °F 29.65 in West 2.0 mph 2.0 mph 89% 0.00 in 0 W/m2
16:52 44.4 °F 41.4 °F 29.66 in WNW 1.0 mph 1.0 mph 89% 0.00 in 0 W/m2
16:58 44.4 °F 41.4 °F 29.66 in WNW 2.0 mph 3.0 mph 89% 0.00 in 0 W/m2
17:04 44.3 °F 41.3 °F 29.67 in West 1.0 mph 2.0 mph 89% 0.00 in 0 W/m2
17:10 44.4 °F 41.7 °F 29.67 in West 1.0 mph 3.0 mph 90% 0.00 in 0 W/m2
17:15 44.4 °F 41.7 °F 29.67 in West 1.0 mph 5.0 mph 90% 0.00 in 0 W/m2
17:22 44.4 °F 41.7 °F 29.67 in West 2.0 mph 2.0 mph 90% 0.00 in 0 W/m2
17:28 44.4 °F 41.7 °F 29.67 in West 2.0 mph 4.0 mph 90% 0.00 in 0 W/m2
17:34 44.5 °F 41.5 °F 29.67 in West 2.0 mph 5.0 mph 89% 0.00 in 0 W/m2
17:40 44.4 °F 41.4 °F 29.67 in West 3.0 mph 4.0 mph 89% 0.00 in 0 W/m2
17:46 44.4 °F 41.4 °F 29.68 in West 3.0 mph 4.0 mph 89% 0.00 in 0 W/m2
17:52 44.4 °F 41.1 °F 29.68 in West 3.0 mph 5.0 mph 88% 0.00 in 0 W/m2
17:58 44.5 °F 40.9 °F 29.68 in WNW 4.0 mph 5.0 mph 87% 0.00 in 0 W/m2
18:04 44.4 °F 40.8 °F 29.68 in WNW 2.0 mph 5.0 mph 87% 0.00 in 0 W/m2
18:10 44.3 °F 40.4 °F 29.68 in WNW 2.0 mph 4.0 mph 86% 0.00 in 0 W/m2
18:16 44.2 °F 39.7 °F 29.68 in WNW 2.0 mph 4.0 mph 84% 0.00 in 0 W/m2
18:22 44.2 °F 39.4 °F 29.69 in West 3.0 mph 3.0 mph 83% 0.00 in 0 W/m2
18:28 44.2 °F 39.1 °F 29.69 in West 3.0 mph 5.0 mph 82% 0.00 in 0 W/m2
18:34 44.2 °F 38.7 °F 29.69 in West 2.0 mph 3.0 mph 81% 0.00 in 0 W/m2
18:40 44.0 °F 38.5 °F 29.69 in WSW 2.0 mph 2.0 mph 81% 0.00 in 0 W/m2
18:46 43.9 °F 38.4 °F 29.69 in WSW 1.0 mph 2.0 mph 81% 0.00 in 0 W/m2
18:52 43.8 °F 38.3 °F 29.69 in WSW 1.0 mph 1.0 mph 81% 0.00 in 0 W/m2
18:58 43.7 °F 38.6 °F 29.69 in WSW 1.0 mph 1.0 mph 82% 0.00 in 0 W/m2
19:04 43.6 °F 38.5 °F 29.69 in WSW 1.0 mph 1.0 mph 82% 0.00 in 0 W/m2
19:10 43.5 °F 38.4 °F 29.70 in WSW 1.0 mph 1.0 mph 82% 0.00 in 0 W/m2
19:16 43.4 °F 38.3 °F 29.70 in WSW 1.0 mph 3.0 mph 82% 0.00 in 0 W/m2
19:22 43.4 °F 38.6 °F 29.70 in WSW 1.0 mph 1.0 mph 83% 0.00 in 0 W/m2
19:28 43.3 °F 38.5 °F 29.70 in WSW 1.0 mph 2.0 mph 83% 0.00 in 0 W/m2
19:34 43.2 °F 38.4 °F 29.70 in WSW 1.0 mph 1.0 mph 83% 0.00 in 0 W/m2
19:40 43.1 °F 38.6 °F 29.70 in WSW 1.0 mph 1.0 mph 84% 0.00 in 0 W/m2
19:46 43.1 °F 38.6 °F 29.70 in WSW 1.0 mph 2.0 mph 84% 0.00 in 0 W/m2
19:52 43.0 °F 38.5 °F 29.70 in WSW 1.0 mph 1.0 mph 84% 0.00 in 0 W/m2
19:54 43.0 °F 38.5 °F 29.70 in WSW 1.0 mph 1.0 mph 84% 0.00 in 0 W/m2
19:59 43.1 °F 38.6 °F 29.71 in WSW 1.0 mph 1.0 mph 84% 0.00 in 0 W/m2
20:06 43.1 °F 38.6 °F 29.70 in WSW 1.0 mph 4.0 mph 84% 0.00 in 0 W/m2
20:12 43.2 °F 39.0 °F 29.70 in WNW 2.0 mph 2.0 mph 85% 0.00 in 0 W/m2
20:18 43.3 °F 39.1 °F 29.71 in WSW 2.0 mph 2.0 mph 85% 0.00 in 0 W/m2
20:24 43.3 °F 39.1 °F 29.71 in WSW 1.0 mph 3.0 mph 85% 0.00 in 0 W/m2
20:30 43.2 °F 39.0 °F 29.71 in WSW 1.0 mph 1.0 mph 85% 0.00 in 0 W/m2
20:36 43.2 °F 39.3 °F 29.71 in WSW 1.0 mph 1.0 mph 86% 0.00 in 0 W/m2
20:42 43.1 °F 39.2 °F 29.71 in Calm   1.0 mph 86% 0.00 in 0 W/m2
20:48 43.1 °F 39.2 °F 29.71 in WSW 1.0 mph 3.0 mph 86% 0.00 in 0 W/m2
20:54 43.1 °F 39.2 °F 29.71 in WNW 2.0 mph 3.0 mph 86% 0.00 in 0 W/m2
21:00 43.1 °F 39.2 °F 29.72 in WSW 2.0 mph 2.0 mph 86% 0.00 in 0 W/m2
21:05 43.2 °F 39.0 °F 29.72 in WSW 2.0 mph 4.0 mph 85% 0.00 in 0 W/m2
21:12 43.3 °F 39.1 °F 29.72 in WSW 3.0 mph 4.0 mph 85% 0.00 in 0 W/m2
21:18 43.3 °F 38.8 °F 29.72 in West 3.0 mph 4.0 mph 84% 0.00 in 0 W/m2
21:24 43.4 °F 38.6 °F 29.72 in WSW 3.0 mph 6.0 mph 83% 0.00 in 0 W/m2
21:30 43.5 °F 38.4 °F 29.73 in WSW 3.0 mph 3.0 mph 82% 0.00 in 0 W/m2
21:36 43.4 °F 38.0 °F 29.73 in West 2.0 mph 3.0 mph 81% 0.00 in 0 W/m2
21:42 43.4 °F 38.0 °F 29.73 in WSW 3.0 mph 3.0 mph 81% 0.00 in 0 W/m2
21:48 43.4 °F 37.6 °F 29.73 in WNW 2.0 mph 3.0 mph 80% 0.00 in 0 W/m2
21:54 43.4 °F 37.0 °F 29.73 in West 3.0 mph 6.0 mph 78% 0.00 in 0 W/m2
21:59 43.3 °F 36.6 °F 29.73 in WNW 3.0 mph 4.0 mph 77% 0.00 in 0 W/m2
22:05 43.2 °F 35.8 °F 29.73 in NW 4.0 mph 7.0 mph 75% 0.00 in 0 W/m2
22:12 43.2 °F 35.1 °F 29.74 in WNW 4.0 mph 4.0 mph 73% 0.00 in 0 W/m2
22:18 43.0 °F 34.6 °F 29.74 in WSW 4.0 mph 4.0 mph 72% 0.00 in 0 W/m2
22:24 42.8 °F 34.0 °F 29.74 in WNW 3.0 mph 4.0 mph 71% 0.00 in 0 W/m2
22:30 42.7 °F 33.9 °F 29.73 in West 3.0 mph 3.0 mph 71% 0.00 in 0 W/m2
22:36 42.5 °F 33.8 °F 29.73 in West 2.0 mph 4.0 mph 71% 0.00 in 0 W/m2
22:42 42.4 °F 33.7 °F 29.73 in WSW 2.0 mph 3.0 mph 71% 0.00 in 0 W/m2
22:48 42.3 °F 33.6 °F 29.74 in West 2.0 mph 5.0 mph 71% 0.00 in 0 W/m2
22:53 42.2 °F 33.5 °F 29.75 in West 2.0 mph 2.0 mph 71% 0.00 in 0 W/m2
22:59 42.1 °F 33.7 °F 29.75 in West 1.0 mph 2.0 mph 72% 0.00 in 0 W/m2
23:05 42.0 °F 33.6 °F 29.75 in West 1.0 mph 4.0 mph 72% 0.00 in 0 W/m2
23:12 41.9 °F 33.5 °F 29.75 in West 2.0 mph 5.0 mph 72% 0.00 in 0 W/m2
23:18 41.9 °F 33.9 °F 29.75 in WSW 2.0 mph 5.0 mph 73% 0.00 in 0 W/m2
23:24 41.8 °F 33.8 °F 29.75 in WSW 1.0 mph 3.0 mph 73% 0.00 in 0 W/m2
23:30 41.8 °F 34.5 °F 29.76 in WNW 2.0 mph 2.0 mph 75% 0.00 in 0 W/m2
23:36 41.6 °F 34.6 °F 29.76 in West 2.0 mph 2.0 mph 76% 0.00 in 0 W/m2
23:42 41.4 °F 34.7 °F 29.76 in WNW 2.0 mph 6.0 mph 77% 0.00 in 0 W/m2
23:48 41.2 °F 34.5 °F 29.76 in WNW 2.0 mph 6.0 mph 77% 0.00 in 0 W/m2
23:54 41.1 °F 34.8 °F 29.76 in WNW 1.0 mph 3.0 mph 78% 0.00 in 0 W/m2
Country Meadow, Clay, NY, USA
Compliments of Weather Underground - 2 mb